sensor_id;sensor_type;location;lat;lon;timestamp;temperature;humidity
322;DHT22;148;51.480;7.208;2022-08-05T11:25:38;21.00;41.70
322;DHT22;148;51.480;7.208;2022-08-05T11:33:37;21.80;47.60
322;DHT22;148;51.480;7.208;2022-08-05T11:36:08;22.00;47.90
322;DHT22;148;51.480;7.208;2022-08-05T11:41:24;22.10;49.70
322;DHT22;148;51.480;7.208;2022-08-05T11:46:31;22.60;50.10
322;DHT22;148;51.480;7.208;2022-08-05T11:48:59;22.30;51.00
322;DHT22;148;51.480;7.208;2022-08-05T11:51:26;22.10;48.80
322;DHT22;148;51.480;7.208;2022-08-05T11:53:53;22.00;49.60
322;DHT22;148;51.480;7.208;2022-08-05T11:56:20;22.10;50.20
322;DHT22;148;51.480;7.208;2022-08-05T11:58:46;22.10;49.70
322;DHT22;148;51.480;7.208;2022-08-05T12:01:15;21.90;49.40
322;DHT22;148;51.480;7.208;2022-08-05T12:03:46;21.70;48.50
322;DHT22;148;51.480;7.208;2022-08-05T12:06:14;21.80;49.20
322;DHT22;148;51.480;7.208;2022-08-05T12:08:45;21.70;49.20
322;DHT22;148;51.480;7.208;2022-08-05T12:11:28;21.90;49.50
322;DHT22;148;51.480;7.208;2022-08-05T12:14:05;22.00;50.00
322;DHT22;148;51.480;7.208;2022-08-05T12:16:36;22.00;49.70
322;DHT22;148;51.480;7.208;2022-08-05T12:19:06;22.10;49.60
322;DHT22;148;51.480;7.208;2022-08-05T12:21:34;22.50;50.20
322;DHT22;148;51.480;7.208;2022-08-05T12:24:11;22.90;51.60
322;DHT22;148;51.480;7.208;2022-08-05T12:29:16;23.20;53.20
322;DHT22;148;51.480;7.208;2022-08-05T12:31:47;23.20;53.00
322;DHT22;148;51.480;7.208;2022-08-05T12:34:14;23.30;53.70
322;DHT22;148;51.480;7.208;2022-08-05T12:36:41;23.60;54.50
322;DHT22;148;51.480;7.208;2022-08-05T12:39:07;23.60;54.80
322;DHT22;148;51.480;7.208;2022-08-05T12:41:34;23.50;54.70
322;DHT22;148;51.480;7.208;2022-08-05T12:44:03;23.40;54.20
322;DHT22;148;51.480;7.208;2022-08-05T12:46:31;23.40;54.10
322;DHT22;148;51.480;7.208;2022-08-05T12:49:10;23.30;53.40
322;DHT22;148;51.480;7.208;2022-08-05T12:51:48;23.50;53.40
322;DHT22;148;51.480;7.208;2022-08-05T12:54:25;23.60;53.80
322;DHT22;148;51.480;7.208;2022-08-05T12:56:59;23.80;54.50
322;DHT22;148;51.480;7.208;2022-08-05T12:59:41;23.70;54.40
322;DHT22;148;51.480;7.208;2022-08-05T13:02:09;23.90;54.90
322;DHT22;148;51.480;7.208;2022-08-05T13:04:36;24.00;55.40
322;DHT22;148;51.480;7.208;2022-08-05T13:07:08;23.70;55.30
322;DHT22;148;51.480;7.208;2022-08-05T13:09:38;23.40;55.50
322;DHT22;148;51.480;7.208;2022-08-05T13:12:10;23.40;55.60
322;DHT22;148;51.480;7.208;2022-08-05T13:14:37;23.30;55.40
322;DHT22;148;51.480;7.208;2022-08-05T13:17:28;23.20;55.20
322;DHT22;148;51.480;7.208;2022-08-05T13:20:13;23.10;54.60
322;DHT22;148;51.480;7.208;2022-08-05T13:22:42;23.10;54.30
322;DHT22;148;51.480;7.208;2022-08-05T13:25:10;23.30;54.10
322;DHT22;148;51.480;7.208;2022-08-05T13:27:40;23.50;54.40
322;DHT22;148;51.480;7.208;2022-08-05T13:30:09;23.70;54.60
322;DHT22;148;51.480;7.208;2022-08-05T13:32:35;24.40;55.30
322;DHT22;148;51.480;7.208;2022-08-05T13:35:01;25.50;56.00
322;DHT22;148;51.480;7.208;2022-08-05T13:37:26;26.90;56.40
322;DHT22;148;51.480;7.208;2022-08-05T13:39:52;28.30;53.70
322;DHT22;148;51.480;7.208;2022-08-05T13:42:19;29.00;48.60
322;DHT22;148;51.480;7.208;2022-08-05T13:44:46;28.60;46.80
322;DHT22;148;51.480;7.208;2022-08-05T13:47:14;28.20;48.40
322;DHT22;148;51.480;7.208;2022-08-05T13:49:40;27.80;50.10
322;DHT22;148;51.480;7.208;2022-08-05T13:52:14;27.20;51.10
322;DHT22;148;51.480;7.208;2022-08-05T13:54:40;26.50;53.20
322;DHT22;148;51.480;7.208;2022-08-05T13:57:08;26.00;55.20
322;DHT22;148;51.480;7.208;2022-08-05T13:59:34;25.50;56.90
322;DHT22;148;51.480;7.208;2022-08-05T14:02:01;24.90;58.60
322;DHT22;148;51.480;7.208;2022-08-05T14:04:32;24.60;59.90
322;DHT22;148;51.480;7.208;2022-08-05T14:07:27;24.20;59.50
322;DHT22;148;51.480;7.208;2022-08-05T14:09:53;23.90;60.90
322;DHT22;148;51.480;7.208;2022-08-05T14:12:19;23.80;61.40
322;DHT22;148;51.480;7.208;2022-08-05T14:14:47;23.70;61.70
322;DHT22;148;51.480;7.208;2022-08-05T14:17:13;23.60;62.10
322;DHT22;148;51.480;7.208;2022-08-05T14:19:42;23.50;63.00
322;DHT22;148;51.480;7.208;2022-08-05T14:22:08;23.40;62.50
322;DHT22;148;51.480;7.208;2022-08-05T14:24:34;23.40;62.20
322;DHT22;148;51.480;7.208;2022-08-05T14:27:00;23.40;62.00
322;DHT22;148;51.480;7.208;2022-08-05T14:29:27;23.30;61.10
322;DHT22;148;51.480;7.208;2022-08-05T14:31:52;23.30;60.90
322;DHT22;148;51.480;7.208;2022-08-05T14:34:18;23.30;60.90
322;DHT22;148;51.480;7.208;2022-08-05T14:36:44;23.40;59.50
322;DHT22;148;51.480;7.208;2022-08-05T14:39:09;23.50;58.80
322;DHT22;148;51.480;7.208;2022-08-05T14:41:35;23.40;59.00
322;DHT22;148;51.480;7.208;2022-08-05T14:44:01;23.40;58.30
322;DHT22;148;51.480;7.208;2022-08-05T14:46:29;23.40;57.20
322;DHT22;148;51.480;7.208;2022-08-05T14:48:56;23.40;55.50
322;DHT22;148;51.480;7.208;2022-08-05T14:51:22;23.50;54.80
322;DHT22;148;51.480;7.208;2022-08-05T14:53:47;23.50;54.20
322;DHT22;148;51.480;7.208;2022-08-05T14:56:16;23.60;54.10
322;DHT22;148;51.480;7.208;2022-08-05T14:58:41;23.70;54.00
322;DHT22;148;51.480;7.208;2022-08-05T15:01:07;23.90;52.40
322;DHT22;148;51.480;7.208;2022-08-05T15:03:33;24.10;51.90
322;DHT22;148;51.480;7.208;2022-08-05T15:05:59;25.20;49.90
322;DHT22;148;51.480;7.208;2022-08-05T15:08:24;26.60;46.60
322;DHT22;148;51.480;7.208;2022-08-05T15:10:50;26.90;44.20
322;DHT22;148;51.480;7.208;2022-08-05T15:13:16;26.80;44.60
322;DHT22;148;51.480;7.208;2022-08-05T15:15:42;26.40;44.70
322;DHT22;148;51.480;7.208;2022-08-05T15:18:08;25.50;46.90
322;DHT22;148;51.480;7.208;2022-08-05T15:20:34;25.20;47.30
322;DHT22;148;51.480;7.208;2022-08-05T15:23:08;25.10;48.60
322;DHT22;148;51.480;7.208;2022-08-05T15:25:34;25.10;47.80
322;DHT22;148;51.480;7.208;2022-08-05T15:28:00;25.30;48.30
322;DHT22;148;51.480;7.208;2022-08-05T15:30:26;26.10;42.90
322;DHT22;148;51.480;7.208;2022-08-05T15:32:52;26.90;39.40
322;DHT22;148;51.480;7.208;2022-08-05T15:35:20;27.50;37.20
322;DHT22;148;51.480;7.208;2022-08-05T15:37:45;27.60;35.90
322;DHT22;148;51.480;7.208;2022-08-05T15:40:12;27.10;35.80
322;DHT22;148;51.480;7.208;2022-08-05T15:42:37;26.50;37.20
322;DHT22;148;51.480;7.208;2022-08-05T15:45:03;25.90;38.20
322;DHT22;148;51.480;7.208;2022-08-05T15:47:29;25.40;38.00
322;DHT22;148;51.480;7.208;2022-08-05T15:49:55;25.20;38.70
322;DHT22;148;51.480;7.208;2022-08-05T15:52:21;24.90;39.30
322;DHT22;148;51.480;7.208;2022-08-05T15:54:47;24.60;40.10
322;DHT22;148;51.480;7.208;2022-08-05T15:57:13;24.50;41.20
322;DHT22;148;51.480;7.208;2022-08-05T15:59:39;24.30;40.60
322;DHT22;148;51.480;7.208;2022-08-05T16:02:06;24.10;40.70
322;DHT22;148;51.480;7.208;2022-08-05T16:04:32;24.10;41.40
322;DHT22;148;51.480;7.208;2022-08-05T16:06:58;24.10;41.10
322;DHT22;148;51.480;7.208;2022-08-05T16:09:24;24.30;40.50
322;DHT22;148;51.480;7.208;2022-08-05T16:11:50;24.50;40.60
322;DHT22;148;51.480;7.208;2022-08-05T16:14:19;24.50;40.70
322;DHT22;148;51.480;7.208;2022-08-05T16:16:45;24.60;40.70
322;DHT22;148;51.480;7.208;2022-08-05T16:19:11;25.00;40.20
322;DHT22;148;51.480;7.208;2022-08-05T16:21:37;25.70;39.50
322;DHT22;148;51.480;7.208;2022-08-05T16:24:03;26.80;37.60
322;DHT22;148;51.480;7.208;2022-08-05T16:26:29;28.20;35.80
322;DHT22;148;51.480;7.208;2022-08-05T16:28:55;29.30;33.30
322;DHT22;148;51.480;7.208;2022-08-05T16:31:21;30.20;31.50
322;DHT22;148;51.480;7.208;2022-08-05T16:33:47;30.40;31.60
322;DHT22;148;51.480;7.208;2022-08-05T16:36:12;30.70;31.20
322;DHT22;148;51.480;7.208;2022-08-05T16:38:38;30.40;31.60
322;DHT22;148;51.480;7.208;2022-08-05T16:41:04;28.80;33.60
322;DHT22;148;51.480;7.208;2022-08-05T16:43:32;27.80;35.70
322;DHT22;148;51.480;7.208;2022-08-05T16:45:58;27.20;36.70
322;DHT22;148;51.480;7.208;2022-08-05T16:48:24;26.50;37.90
322;DHT22;148;51.480;7.208;2022-08-05T16:50:50;25.80;39.60
322;DHT22;148;51.480;7.208;2022-08-05T16:53:15;25.40;39.90
322;DHT22;148;51.480;7.208;2022-08-05T16:55:41;25.20;40.90
322;DHT22;148;51.480;7.208;2022-08-05T16:58:07;25.00;41.50
322;DHT22;148;51.480;7.208;2022-08-05T17:00:32;25.00;41.50
322;DHT22;148;51.480;7.208;2022-08-05T17:03:04;24.50;42.50
322;DHT22;148;51.480;7.208;2022-08-05T17:05:30;24.30;42.80
322;DHT22;148;51.480;7.208;2022-08-05T17:07:56;24.10;43.00
322;DHT22;148;51.480;7.208;2022-08-05T17:10:22;24.10;43.10
322;DHT22;148;51.480;7.208;2022-08-05T17:12:48;23.80;44.10
322;DHT22;148;51.480;7.208;2022-08-05T17:15:16;23.90;43.80
322;DHT22;148;51.480;7.208;2022-08-05T17:17:41;24.00;43.20
322;DHT22;148;51.480;7.208;2022-08-05T17:20:09;24.00;43.50
322;DHT22;148;51.480;7.208;2022-08-05T17:22:36;24.10;43.80
322;DHT22;148;51.480;7.208;2022-08-05T17:25:03;23.90;44.40
322;DHT22;148;51.480;7.208;2022-08-05T17:27:29;23.90;44.20
322;DHT22;148;51.480;7.208;2022-08-05T17:29:56;23.70;44.30
322;DHT22;148;51.480;7.208;2022-08-05T17:32:22;23.80;44.30
322;DHT22;148;51.480;7.208;2022-08-05T17:34:49;23.90;43.70
322;DHT22;148;51.480;7.208;2022-08-05T17:37:15;23.90;43.50
322;DHT22;148;51.480;7.208;2022-08-05T17:39:41;23.90;43.50
322;DHT22;148;51.480;7.208;2022-08-05T17:42:09;23.90;44.00
322;DHT22;148;51.480;7.208;2022-08-05T17:44:35;23.80;44.10
322;DHT22;148;51.480;7.208;2022-08-05T17:47:00;23.70;44.40
322;DHT22;148;51.480;7.208;2022-08-05T17:49:26;23.50;44.10
322;DHT22;148;51.480;7.208;2022-08-05T17:51:54;23.40;44.40
322;DHT22;148;51.480;7.208;2022-08-05T17:54:20;23.30;44.60
322;DHT22;148;51.480;7.208;2022-08-05T17:56:45;23.20;44.90
322;DHT22;148;51.480;7.208;2022-08-05T17:59:11;23.10;44.70
322;DHT22;148;51.480;7.208;2022-08-05T18:01:36;23.00;45.00
322;DHT22;148;51.480;7.208;2022-08-05T18:04:03;22.80;45.10
322;DHT22;148;51.480;7.208;2022-08-05T18:06:29;22.80;45.60
322;DHT22;148;51.480;7.208;2022-08-05T18:08:55;22.70;46.40
322;DHT22;148;51.480;7.208;2022-08-05T18:11:21;22.50;46.40
322;DHT22;148;51.480;7.208;2022-08-05T18:13:47;22.50;47.00
322;DHT22;148;51.480;7.208;2022-08-05T18:16:12;22.40;46.60
322;DHT22;148;51.480;7.208;2022-08-05T18:18:39;22.40;46.80
322;DHT22;148;51.480;7.208;2022-08-05T18:21:05;22.30;46.80
322;DHT22;148;51.480;7.208;2022-08-05T18:23:30;22.40;46.90
322;DHT22;148;51.480;7.208;2022-08-05T18:25:56;22.30;46.60
322;DHT22;148;51.480;7.208;2022-08-05T18:28:22;22.10;47.20
322;DHT22;148;51.480;7.208;2022-08-05T18:30:49;22.10;47.70
322;DHT22;148;51.480;7.208;2022-08-05T18:33:15;22.20;47.40
322;DHT22;148;51.480;7.208;2022-08-05T18:35:41;22.30;47.50
322;DHT22;148;51.480;7.208;2022-08-05T18:38:07;22.30;47.40
322;DHT22;148;51.480;7.208;2022-08-05T18:40:33;22.30;47.60
322;DHT22;148;51.480;7.208;2022-08-05T18:42:59;22.30;47.30
322;DHT22;148;51.480;7.208;2022-08-05T18:45:25;22.20;47.20
322;DHT22;148;51.480;7.208;2022-08-05T18:47:52;22.20;47.30
322;DHT22;148;51.480;7.208;2022-08-05T18:50:17;22.20;47.50
322;DHT22;148;51.480;7.208;2022-08-05T18:53:02;22.20;47.60
322;DHT22;148;51.480;7.208;2022-08-05T18:55:28;22.10;48.10
322;DHT22;148;51.480;7.208;2022-08-05T18:57:53;22.10;48.30
322;DHT22;148;51.480;7.208;2022-08-05T19:00:21;21.90;48.50
322;DHT22;148;51.480;7.208;2022-08-05T19:02:47;21.90;48.90
322;DHT22;148;51.480;7.208;2022-08-05T19:05:12;21.70;49.30
322;DHT22;148;51.480;7.208;2022-08-05T19:07:38;21.70;49.60
322;DHT22;148;51.480;7.208;2022-08-05T19:10:05;21.70;50.00
322;DHT22;148;51.480;7.208;2022-08-05T19:12:30;21.70;49.60
322;DHT22;148;51.480;7.208;2022-08-05T19:14:58;21.60;50.10
322;DHT22;148;51.480;7.208;2022-08-05T19:17:24;21.60;50.20
322;DHT22;148;51.480;7.208;2022-08-05T19:19:50;21.70;50.40
322;DHT22;148;51.480;7.208;2022-08-05T19:22:16;21.70;50.40
322;DHT22;148;51.480;7.208;2022-08-05T19:24:41;21.60;50.50
322;DHT22;148;51.480;7.208;2022-08-05T19:27:07;21.70;50.70
322;DHT22;148;51.480;7.208;2022-08-05T19:29:34;21.70;50.80
322;DHT22;148;51.480;7.208;2022-08-05T19:31:59;21.60;51.20
322;DHT22;148;51.480;7.208;2022-08-05T19:34:25;21.40;51.40
322;DHT22;148;51.480;7.208;2022-08-05T19:36:52;21.40;52.10
322;DHT22;148;51.480;7.208;2022-08-05T19:39:18;21.30;52.10
322;DHT22;148;51.480;7.208;2022-08-05T19:41:43;21.20;52.60
322;DHT22;148;51.480;7.208;2022-08-05T19:44:09;21.20;53.30
322;DHT22;148;51.480;7.208;2022-08-05T19:46:35;21.10;53.10
322;DHT22;148;51.480;7.208;2022-08-05T19:49:05;21.00;54.00
322;DHT22;148;51.480;7.208;2022-08-05T19:51:32;20.90;54.60
322;DHT22;148;51.480;7.208;2022-08-05T19:53:58;20.90;54.80
322;DHT22;148;51.480;7.208;2022-08-05T19:56:23;20.90;55.70
322;DHT22;148;51.480;7.208;2022-08-05T19:58:49;20.80;56.00
322;DHT22;148;51.480;7.208;2022-08-05T20:01:15;20.80;55.80
322;DHT22;148;51.480;7.208;2022-08-05T20:03:40;20.80;56.10
322;DHT22;148;51.480;7.208;2022-08-05T20:06:06;20.80;56.50
322;DHT22;148;51.480;7.208;2022-08-05T20:08:34;20.80;56.80
322;DHT22;148;51.480;7.208;2022-08-05T20:11:00;20.70;57.00
322;DHT22;148;51.480;7.208;2022-08-05T20:13:26;20.70;57.50
322;DHT22;148;51.480;7.208;2022-08-05T20:15:52;20.70;57.50
322;DHT22;148;51.480;7.208;2022-08-05T20:18:17;20.60;58.10
322;DHT22;148;51.480;7.208;2022-08-05T20:20:44;20.60;58.30
322;DHT22;148;51.480;7.208;2022-08-05T20:23:11;20.60;58.20
322;DHT22;148;51.480;7.208;2022-08-05T20:25:37;20.50;58.30
322;DHT22;148;51.480;7.208;2022-08-05T20:28:06;20.40;59.10
322;DHT22;148;51.480;7.208;2022-08-05T20:30:32;20.40;59.10
322;DHT22;148;51.480;7.208;2022-08-05T20:32:58;20.40;59.00
322;DHT22;148;51.480;7.208;2022-08-05T20:35:23;20.20;59.20
322;DHT22;148;51.480;7.208;2022-08-05T20:37:49;20.20;59.80
322;DHT22;148;51.480;7.208;2022-08-05T20:40:15;20.00;60.10
322;DHT22;148;51.480;7.208;2022-08-05T20:42:42;20.00;60.00
322;DHT22;148;51.480;7.208;2022-08-05T20:45:08;20.10;60.00
322;DHT22;148;51.480;7.208;2022-08-05T20:47:34;20.00;60.30
322;DHT22;148;51.480;7.208;2022-08-05T20:50:01;19.90;60.60
322;DHT22;148;51.480;7.208;2022-08-05T20:52:26;19.80;60.70
322;DHT22;148;51.480;7.208;2022-08-05T20:54:52;19.80;61.00
322;DHT22;148;51.480;7.208;2022-08-05T20:57:18;19.80;61.10
322;DHT22;148;51.480;7.208;2022-08-05T20:59:43;19.80;60.90
322;DHT22;148;51.480;7.208;2022-08-05T21:02:09;19.80;60.80
322;DHT22;148;51.480;7.208;2022-08-05T21:04:35;19.70;61.20
322;DHT22;148;51.480;7.208;2022-08-05T21:07:00;19.80;61.40
322;DHT22;148;51.480;7.208;2022-08-05T21:09:26;19.70;61.20
322;DHT22;148;51.480;7.208;2022-08-05T21:11:52;19.70;61.60
322;DHT22;148;51.480;7.208;2022-08-05T21:14:18;19.60;61.70
322;DHT22;148;51.480;7.208;2022-08-05T21:16:43;19.50;61.90
322;DHT22;148;51.480;7.208;2022-08-05T21:19:09;19.50;62.00
322;DHT22;148;51.480;7.208;2022-08-05T21:21:36;19.50;62.00
322;DHT22;148;51.480;7.208;2022-08-05T21:24:04;19.60;62.20
322;DHT22;148;51.480;7.208;2022-08-05T21:26:31;19.60;62.20
322;DHT22;148;51.480;7.208;2022-08-05T21:28:59;19.50;63.30
322;DHT22;148;51.480;7.208;2022-08-05T21:31:25;19.60;62.30
322;DHT22;148;51.480;7.208;2022-08-05T21:33:50;19.60;62.60
322;DHT22;148;51.480;7.208;2022-08-05T21:36:18;19.70;62.10
322;DHT22;148;51.480;7.208;2022-08-05T21:38:45;19.80;62.10
322;DHT22;148;51.480;7.208;2022-08-05T21:41:11;19.70;61.90
322;DHT22;148;51.480;7.208;2022-08-05T21:43:37;19.70;62.50
322;DHT22;148;51.480;7.208;2022-08-05T21:46:03;19.70;62.40
322;DHT22;148;51.480;7.208;2022-08-05T21:48:29;19.70;62.70
322;DHT22;148;51.480;7.208;2022-08-05T21:50:55;19.70;62.70
322;DHT22;148;51.480;7.208;2022-08-05T21:53:21;19.60;63.00
322;DHT22;148;51.480;7.208;2022-08-05T21:55:46;19.70;62.90
322;DHT22;148;51.480;7.208;2022-08-05T21:58:13;19.70;63.00
322;DHT22;148;51.480;7.208;2022-08-05T22:00:41;19.70;63.10
322;DHT22;148;51.480;7.208;2022-08-05T22:03:08;19.70;63.00
322;DHT22;148;51.480;7.208;2022-08-05T22:05:38;19.70;63.10
322;DHT22;148;51.480;7.208;2022-08-05T22:08:07;19.60;63.10
322;DHT22;148;51.480;7.208;2022-08-05T22:10:33;19.50;63.60
322;DHT22;148;51.480;7.208;2022-08-05T22:13:02;19.50;63.70
322;DHT22;148;51.480;7.208;2022-08-05T22:15:28;19.50;63.80
322;DHT22;148;51.480;7.208;2022-08-05T22:17:53;19.40;64.10
322;DHT22;148;51.480;7.208;2022-08-05T22:20:19;19.40;64.20
322;DHT22;148;51.480;7.208;2022-08-05T22:22:45;19.40;64.40
322;DHT22;148;51.480;7.208;2022-08-05T22:25:29;19.30;64.60
322;DHT22;148;51.480;7.208;2022-08-05T22:28:13;19.30;65.10
322;DHT22;148;51.480;7.208;2022-08-05T22:30:40;19.20;65.40
322;DHT22;148;51.480;7.208;2022-08-05T22:33:07;19.20;65.70
322;DHT22;148;51.480;7.208;2022-08-05T22:35:36;19.20;65.70
322;DHT22;148;51.480;7.208;2022-08-05T22:38:02;19.10;66.20
322;DHT22;148;51.480;7.208;2022-08-05T22:40:28;19.00;66.70
322;DHT22;148;51.480;7.208;2022-08-05T22:42:53;19.00;66.60
322;DHT22;148;51.480;7.208;2022-08-05T22:45:19;19.00;66.60
322;DHT22;148;51.480;7.208;2022-08-05T22:47:45;18.90;67.30
322;DHT22;148;51.480;7.208;2022-08-05T22:50:11;18.90;67.60
322;DHT22;148;51.480;7.208;2022-08-05T22:52:37;18.90;67.60
322;DHT22;148;51.480;7.208;2022-08-05T22:55:03;18.80;68.10
322;DHT22;148;51.480;7.208;2022-08-05T22:57:30;18.80;68.30
322;DHT22;148;51.480;7.208;2022-08-05T22:59:55;18.90;68.10
322;DHT22;148;51.480;7.208;2022-08-05T23:02:21;18.90;67.80
322;DHT22;148;51.480;7.208;2022-08-05T23:04:47;18.70;68.10
322;DHT22;148;51.480;7.208;2022-08-05T23:07:12;18.50;69.00
322;DHT22;148;51.480;7.208;2022-08-05T23:09:38;18.50;68.90
322;DHT22;148;51.480;7.208;2022-08-05T23:12:04;18.60;69.00
322;DHT22;148;51.480;7.208;2022-08-05T23:14:29;18.50;69.30
322;DHT22;148;51.480;7.208;2022-08-05T23:16:55;18.50;69.20
322;DHT22;148;51.480;7.208;2022-08-05T23:19:39;18.40;70.10
322;DHT22;148;51.480;7.208;2022-08-05T23:22:05;18.40;70.20
322;DHT22;148;51.480;7.208;2022-08-05T23:24:30;18.50;70.00
322;DHT22;148;51.480;7.208;2022-08-05T23:26:56;18.50;70.20
322;DHT22;148;51.480;7.208;2022-08-05T23:29:24;18.60;70.00
322;DHT22;148;51.480;7.208;2022-08-05T23:31:49;18.60;69.70
322;DHT22;148;51.480;7.208;2022-08-05T23:34:15;18.40;69.70
322;DHT22;148;51.480;7.208;2022-08-05T23:36:41;18.40;70.60
322;DHT22;148;51.480;7.208;2022-08-05T23:39:06;18.40;70.60
322;DHT22;148;51.480;7.208;2022-08-05T23:41:32;18.40;70.40
